sensor_id;sensor_type;location;lat;lon;timestamp;temperature;humidity
38684;DHT22;24910;53.248;-6.134;2023-07-20T00:00:53;17.50;81.00
38684;DHT22;24910;53.248;-6.134;2023-07-20T00:03:22;17.60;81.00
38684;DHT22;24910;53.248;-6.134;2023-07-20T00:05:53;17.50;81.00
38684;DHT22;24910;53.248;-6.134;2023-07-20T00:08:22;17.60;81.10
38684;DHT22;24910;53.248;-6.134;2023-07-20T00:10:52;17.50;81.10
38684;DHT22;24910;53.248;-6.134;2023-07-20T00:13:21;17.50;81.10
38684;DHT22;24910;53.248;-6.134;2023-07-20T00:15:51;17.50;81.10
38684;DHT22;24910;53.248;-6.134;2023-07-20T00:18:20;17.50;81.10
38684;DHT22;24910;53.248;-6.134;2023-07-20T00:20:50;17.50;81.10
38684;DHT22;24910;53.248;-6.134;2023-07-20T00:23:19;17.50;81.10
38684;DHT22;24910;53.248;-6.134;2023-07-20T00:25:52;17.50;81.20
38684;DHT22;24910;53.248;-6.134;2023-07-20T00:28:21;17.50;81.20
38684;DHT22;24910;53.248;-6.134;2023-07-20T00:30:50;17.50;81.20
38684;DHT22;24910;53.248;-6.134;2023-07-20T00:33:19;17.50;81.10
38684;DHT22;24910;53.248;-6.134;2023-07-20T00:35:49;17.50;81.20
38684;DHT22;24910;53.248;-6.134;2023-07-20T00:38:18;17.50;81.20
38684;DHT22;24910;53.248;-6.134;2023-07-20T00:40:48;17.50;81.10
38684;DHT22;24910;53.248;-6.134;2023-07-20T00:43:19;17.50;81.20
38684;DHT22;24910;53.248;-6.134;2023-07-20T00:45:48;17.40;81.10
38684;DHT22;24910;53.248;-6.134;2023-07-20T00:48:18;17.40;81.20
38684;DHT22;24910;53.248;-6.134;2023-07-20T00:50:48;17.40;81.20
38684;DHT22;24910;53.248;-6.134;2023-07-20T00:53:17;17.40;81.20
38684;DHT22;24910;53.248;-6.134;2023-07-20T00:55:46;17.40;81.30
38684;DHT22;24910;53.248;-6.134;2023-07-20T00:58:16;17.30;81.20
38684;DHT22;24910;53.248;-6.134;2023-07-20T01:00:47;17.30;81.30
38684;DHT22;24910;53.248;-6.134;2023-07-20T01:03:16;17.30;81.30
38684;DHT22;24910;53.248;-6.134;2023-07-20T01:05:51;17.30;81.30
38684;DHT22;24910;53.248;-6.134;2023-07-20T01:08:30;17.30;81.30
38684;DHT22;24910;53.248;-6.134;2023-07-20T01:11:09;17.40;81.20
38684;DHT22;24910;53.248;-6.134;2023-07-20T01:13:39;17.40;81.20
38684;DHT22;24910;53.248;-6.134;2023-07-20T01:16:10;17.40;81.10
38684;DHT22;24910;53.248;-6.134;2023-07-20T01:18:39;17.30;81.10
38684;DHT22;24910;53.248;-6.134;2023-07-20T01:21:12;17.30;81.00
38684;DHT22;24910;53.248;-6.134;2023-07-20T01:26:53;17.40;81.00
38684;DHT22;24910;53.248;-6.134;2023-07-20T01:29:43;17.40;80.90
38684;DHT22;24910;53.248;-6.134;2023-07-20T01:32:19;17.30;80.80
38684;DHT22;24910;53.248;-6.134;2023-07-20T01:34:53;17.30;80.90
38684;DHT22;24910;53.248;-6.134;2023-07-20T01:37:23;17.30;80.80
38684;DHT22;24910;53.248;-6.134;2023-07-20T01:39:55;17.30;80.90
38684;DHT22;24910;53.248;-6.134;2023-07-20T01:42:24;17.30;80.90
38684;DHT22;24910;53.248;-6.134;2023-07-20T01:44:54;17.30;81.00
38684;DHT22;24910;53.248;-6.134;2023-07-20T01:47:25;17.20;80.90
38684;DHT22;24910;53.248;-6.134;2023-07-20T01:49:54;17.20;81.00
38684;DHT22;24910;53.248;-6.134;2023-07-20T01:52:24;17.20;81.10
38684;DHT22;24910;53.248;-6.134;2023-07-20T01:54:53;17.20;81.10
38684;DHT22;24910;53.248;-6.134;2023-07-20T01:57:22;17.10;81.20
38684;DHT22;24910;53.248;-6.134;2023-07-20T01:59:52;17.10;81.20
38684;DHT22;24910;53.248;-6.134;2023-07-20T02:02:22;17.10;81.20
38684;DHT22;24910;53.248;-6.134;2023-07-20T02:04:53;17.10;81.20
38684;DHT22;24910;53.248;-6.134;2023-07-20T02:07:23;17.00;81.10
38684;DHT22;24910;53.248;-6.134;2023-07-20T02:09:52;17.10;81.20
38684;DHT22;24910;53.248;-6.134;2023-07-20T02:12:21;17.00;81.20
38684;DHT22;24910;53.248;-6.134;2023-07-20T02:14:50;17.00;81.20
38684;DHT22;24910;53.248;-6.134;2023-07-20T02:17:19;17.00;81.20
38684;DHT22;24910;53.248;-6.134;2023-07-20T02:19:50;17.00;81.10
38684;DHT22;24910;53.248;-6.134;2023-07-20T02:22:21;17.10;81.10
38684;DHT22;24910;53.248;-6.134;2023-07-20T02:24:50;17.00;81.10
38684;DHT22;24910;53.248;-6.134;2023-07-20T02:27:19;17.00;81.00
38684;DHT22;24910;53.248;-6.134;2023-07-20T02:29:48;17.00;81.00
38684;DHT22;24910;53.248;-6.134;2023-07-20T02:32:18;17.10;81.00
38684;DHT22;24910;53.248;-6.134;2023-07-20T02:34:47;17.10;80.90
38684;DHT22;24910;53.248;-6.134;2023-07-20T02:37:16;17.10;80.80
38684;DHT22;24910;53.248;-6.134;2023-07-20T02:39:47;17.10;80.90
38684;DHT22;24910;53.248;-6.134;2023-07-20T02:42:16;17.10;80.80
38684;DHT22;24910;53.248;-6.134;2023-07-20T02:44:45;17.10;80.80
38684;DHT22;24910;53.248;-6.134;2023-07-20T02:47:15;17.10;80.70
38684;DHT22;24910;53.248;-6.134;2023-07-20T02:49:44;17.10;80.70
38684;DHT22;24910;53.248;-6.134;2023-07-20T02:52:14;17.10;80.80
38684;DHT22;24910;53.248;-6.134;2023-07-20T02:54:43;17.10;80.70
38684;DHT22;24910;53.248;-6.134;2023-07-20T02:57:13;17.10;80.60
38684;DHT22;24910;53.248;-6.134;2023-07-20T02:59:42;17.10;80.60
38684;DHT22;24910;53.248;-6.134;2023-07-20T03:02:11;17.10;80.70
38684;DHT22;24910;53.248;-6.134;2023-07-20T03:04:40;17.10;80.70
38684;DHT22;24910;53.248;-6.134;2023-07-20T03:07:09;17.00;80.70
38684;DHT22;24910;53.248;-6.134;2023-07-20T03:09:38;17.00;80.80
38684;DHT22;24910;53.248;-6.134;2023-07-20T03:12:09;17.00;80.80
38684;DHT22;24910;53.248;-6.134;2023-07-20T03:14:39;17.00;80.80
38684;DHT22;24910;53.248;-6.134;2023-07-20T03:17:08;17.00;80.80
38684;DHT22;24910;53.248;-6.134;2023-07-20T03:19:37;17.00;80.80
38684;DHT22;24910;53.248;-6.134;2023-07-20T03:22:07;16.90;80.70
38684;DHT22;24910;53.248;-6.134;2023-07-20T03:24:36;17.00;80.80
38684;DHT22;24910;53.248;-6.134;2023-07-20T03:27:06;17.00;80.80
38684;DHT22;24910;53.248;-6.134;2023-07-20T03:29:35;16.90;80.80
38684;DHT22;24910;53.248;-6.134;2023-07-20T03:32:08;16.90;80.80
38684;DHT22;24910;53.248;-6.134;2023-07-20T03:34:37;16.90;80.80
38684;DHT22;24910;53.248;-6.134;2023-07-20T03:37:06;17.00;80.80
38684;DHT22;24910;53.248;-6.134;2023-07-20T03:39:35;16.90;80.60
38684;DHT22;24910;53.248;-6.134;2023-07-20T03:42:05;16.90;80.60
38684;DHT22;24910;53.248;-6.134;2023-07-20T03:44:35;16.90;80.60
38684;DHT22;24910;53.248;-6.134;2023-07-20T03:47:04;16.90;80.70
38684;DHT22;24910;53.248;-6.134;2023-07-20T03:49:35;16.90;80.70
38684;DHT22;24910;53.248;-6.134;2023-07-20T03:52:06;16.90;80.60
38684;DHT22;24910;53.248;-6.134;2023-07-20T03:54:35;16.90;80.70
38684;DHT22;24910;53.248;-6.134;2023-07-20T03:57:04;16.90;80.70
38684;DHT22;24910;53.248;-6.134;2023-07-20T03:59:33;16.90;80.80
38684;DHT22;24910;53.248;-6.134;2023-07-20T04:02:03;16.90;80.80
38684;DHT22;24910;53.248;-6.134;2023-07-20T04:04:35;16.90;80.90
38684;DHT22;24910;53.248;-6.134;2023-07-20T04:07:04;16.80;80.80
38684;DHT22;24910;53.248;-6.134;2023-07-20T04:09:33;16.80;80.90
38684;DHT22;24910;53.248;-6.134;2023-07-20T04:12:03;16.80;80.80
38684;DHT22;24910;53.248;-6.134;2023-07-20T04:14:32;16.80;80.80
38684;DHT22;24910;53.248;-6.134;2023-07-20T04:17:01;16.80;80.90
38684;DHT22;24910;53.248;-6.134;2023-07-20T04:19:31;16.80;80.90
38684;DHT22;24910;53.248;-6.134;2023-07-20T04:22:01;16.80;80.90
38684;DHT22;24910;53.248;-6.134;2023-07-20T04:24:31;16.80;80.80
38684;DHT22;24910;53.248;-6.134;2023-07-20T04:27:00;16.80;80.90
38684;DHT22;24910;53.248;-6.134;2023-07-20T04:29:29;16.80;80.90
38684;DHT22;24910;53.248;-6.134;2023-07-20T04:31:58;16.70;80.90
38684;DHT22;24910;53.248;-6.134;2023-07-20T04:34:27;16.70;81.00
38684;DHT22;24910;53.248;-6.134;2023-07-20T04:36:57;16.70;81.10
38684;DHT22;24910;53.248;-6.134;2023-07-20T04:39:29;16.70;81.10
38684;DHT22;24910;53.248;-6.134;2023-07-20T04:42:07;16.70;81.10
38684;DHT22;24910;53.248;-6.134;2023-07-20T04:44:36;16.70;81.00
38684;DHT22;24910;53.248;-6.134;2023-07-20T04:47:06;16.70;81.10
38684;DHT22;24910;53.248;-6.134;2023-07-20T04:49:38;16.70;81.00
38684;DHT22;24910;53.248;-6.134;2023-07-20T04:52:07;16.70;81.00
38684;DHT22;24910;53.248;-6.134;2023-07-20T04:54:38;16.70;80.90
38684;DHT22;24910;53.248;-6.134;2023-07-20T04:57:11;16.70;80.90
38684;DHT22;24910;53.248;-6.134;2023-07-20T04:59:45;16.70;80.80
38684;DHT22;24910;53.248;-6.134;2023-07-20T05:02:14;16.70;80.90
38684;DHT22;24910;53.248;-6.134;2023-07-20T05:04:43;16.80;80.90
38684;DHT22;24910;53.248;-6.134;2023-07-20T05:07:12;16.70;80.80
38684;DHT22;24910;53.248;-6.134;2023-07-20T05:09:43;16.70;80.90
38684;DHT22;24910;53.248;-6.134;2023-07-20T05:12:12;16.80;80.90
38684;DHT22;24910;53.248;-6.134;2023-07-20T05:14:41;16.80;80.90
38684;DHT22;24910;53.248;-6.134;2023-07-20T05:17:10;16.70;80.90
38684;DHT22;24910;53.248;-6.134;2023-07-20T05:19:39;16.70;81.00
38684;DHT22;24910;53.248;-6.134;2023-07-20T05:22:13;16.70;81.00
38684;DHT22;24910;53.248;-6.134;2023-07-20T05:24:44;16.70;81.00
38684;DHT22;24910;53.248;-6.134;2023-07-20T05:27:13;16.80;81.00
38684;DHT22;24910;53.248;-6.134;2023-07-20T05:29:44;16.80;81.00
38684;DHT22;24910;53.248;-6.134;2023-07-20T05:32:13;16.80;81.00
38684;DHT22;24910;53.248;-6.134;2023-07-20T05:34:42;16.80;81.00
38684;DHT22;24910;53.248;-6.134;2023-07-20T05:37:11;16.80;81.00
38684;DHT22;24910;53.248;-6.134;2023-07-20T05:39:41;16.80;81.00
38684;DHT22;24910;53.248;-6.134;2023-07-20T05:42:12;16.80;80.80
38684;DHT22;24910;53.248;-6.134;2023-07-20T05:44:41;16.80;80.80
38684;DHT22;24910;53.248;-6.134;2023-07-20T05:47:10;16.80;80.80
38684;DHT22;24910;53.248;-6.134;2023-07-20T05:49:39;16.90;80.80
38684;DHT22;24910;53.248;-6.134;2023-07-20T05:52:08;16.90;80.80
38684;DHT22;24910;53.248;-6.134;2023-07-20T05:54:38;16.90;80.80
38684;DHT22;24910;53.248;-6.134;2023-07-20T05:57:07;16.90;80.90
38684;DHT22;24910;53.248;-6.134;2023-07-20T05:59:37;16.90;80.80
38684;DHT22;24910;53.248;-6.134;2023-07-20T06:02:08;16.90;80.80
38684;DHT22;24910;53.248;-6.134;2023-07-20T06:04:38;17.00;80.90
38684;DHT22;24910;53.248;-6.134;2023-07-20T06:07:10;17.10;80.80
38684;DHT22;24910;53.248;-6.134;2023-07-20T06:09:39;17.20;80.70
38684;DHT22;24910;53.248;-6.134;2023-07-20T06:12:09;17.40;80.60
38684;DHT22;24910;53.248;-6.134;2023-07-20T06:14:39;17.50;80.40
38684;DHT22;24910;53.248;-6.134;2023-07-20T06:17:09;17.70;80.20
38684;DHT22;24910;53.248;-6.134;2023-07-20T06:19:38;17.80;80.00
38684;DHT22;24910;53.248;-6.134;2023-07-20T06:22:07;17.90;80.00
38684;DHT22;24910;53.248;-6.134;2023-07-20T06:24:36;17.90;79.90
38684;DHT22;24910;53.248;-6.134;2023-07-20T06:27:06;17.90;80.00
38684;DHT22;24910;53.248;-6.134;2023-07-20T06:29:35;17.80;80.00
38684;DHT22;24910;53.248;-6.134;2023-07-20T06:32:07;17.80;80.20
38684;DHT22;24910;53.248;-6.134;2023-07-20T06:34:36;17.80;80.20
38684;DHT22;24910;53.248;-6.134;2023-07-20T06:37:06;17.80;80.20
38684;DHT22;24910;53.248;-6.134;2023-07-20T06:39:35;17.80;80.20
38684;DHT22;24910;53.248;-6.134;2023-07-20T06:42:07;17.90;80.30
38684;DHT22;24910;53.248;-6.134;2023-07-20T06:44:36;17.90;80.30
38684;DHT22;24910;53.248;-6.134;2023-07-20T06:47:07;17.90;80.20
38684;DHT22;24910;53.248;-6.134;2023-07-20T06:49:36;18.00;80.20
38684;DHT22;24910;53.248;-6.134;2023-07-20T06:52:06;18.00;80.20
38684;DHT22;24910;53.248;-6.134;2023-07-20T06:54:36;18.00;80.20
38684;DHT22;24910;53.248;-6.134;2023-07-20T06:57:11;18.10;80.20
38684;DHT22;24910;53.248;-6.134;2023-07-20T06:59:46;18.10;80.30
38684;DHT22;24910;53.248;-6.134;2023-07-20T07:02:17;18.10;80.20
38684;DHT22;24910;53.248;-6.134;2023-07-20T07:04:46;18.10;80.20
38684;DHT22;24910;53.248;-6.134;2023-07-20T07:07:16;18.10;80.20
38684;DHT22;24910;53.248;-6.134;2023-07-20T07:09:48;18.10;80.30
38684;DHT22;24910;53.248;-6.134;2023-07-20T07:12:17;18.10;80.30
38684;DHT22;24910;53.248;-6.134;2023-07-20T07:14:46;18.10;81.20
38684;DHT22;24910;53.248;-6.134;2023-07-20T07:17:16;18.10;80.30
38684;DHT22;24910;53.248;-6.134;2023-07-20T07:19:47;18.10;80.40
38684;DHT22;24910;53.248;-6.134;2023-07-20T07:22:16;18.20;80.50
38684;DHT22;24910;53.248;-6.134;2023-07-20T07:24:45;18.20;80.40
38684;DHT22;24910;53.248;-6.134;2023-07-20T07:27:14;18.10;80.40
38684;DHT22;24910;53.248;-6.134;2023-07-20T07:29:44;18.20;80.40
38684;DHT22;24910;53.248;-6.134;2023-07-20T07:32:14;18.20;80.30
38684;DHT22;24910;53.248;-6.134;2023-07-20T07:34:45;18.30;80.40
38684;DHT22;24910;53.248;-6.134;2023-07-20T07:37:15;18.40;80.30
38684;DHT22;24910;53.248;-6.134;2023-07-20T07:39:45;18.40;80.20
38684;DHT22;24910;53.248;-6.134;2023-07-20T07:42:14;18.60;80.10
38684;DHT22;24910;53.248;-6.134;2023-07-20T07:44:43;18.60;80.00
38684;DHT22;24910;53.248;-6.134;2023-07-20T07:47:12;18.70;79.80
38684;DHT22;24910;53.248;-6.134;2023-07-20T07:49:41;18.90;79.80
38684;DHT22;24910;53.248;-6.134;2023-07-20T07:52:15;19.00;79.50
38684;DHT22;24910;53.248;-6.134;2023-07-20T07:54:44;19.00;79.50
38684;DHT22;24910;53.248;-6.134;2023-07-20T07:57:13;19.10;79.20
38684;DHT22;24910;53.248;-6.134;2023-07-20T07:59:42;19.30;79.20
38684;DHT22;24910;53.248;-6.134;2023-07-20T08:02:12;19.40;79.00
38684;DHT22;24910;53.248;-6.134;2023-07-20T08:04:41;19.50;78.60
38684;DHT22;24910;53.248;-6.134;2023-07-20T08:07:10;19.60;78.60
38684;DHT22;24910;53.248;-6.134;2023-07-20T08:09:40;19.70;78.30
38684;DHT22;24910;53.248;-6.134;2023-07-20T08:12:09;19.80;78.00
38684;DHT22;24910;53.248;-6.134;2023-07-20T08:14:39;19.80;77.80
38684;DHT22;24910;53.248;-6.134;2023-07-20T08:17:08;19.80;77.70
38684;DHT22;24910;53.248;-6.134;2023-07-20T08:19:37;20.00;77.80
38684;DHT22;24910;53.248;-6.134;2023-07-20T08:22:09;20.20;77.50
38684;DHT22;24910;53.248;-6.134;2023-07-20T08:24:42;20.30;77.20
38684;DHT22;24910;53.248;-6.134;2023-07-20T08:27:11;20.40;76.60
38684;DHT22;24910;53.248;-6.134;2023-07-20T08:29:40;20.50;76.70
38684;DHT22;24910;53.248;-6.134;2023-07-20T08:32:09;20.50;76.50
38684;DHT22;24910;53.248;-6.134;2023-07-20T08:34:38;20.60;76.40
38684;DHT22;24910;53.248;-6.134;2023-07-20T08:37:09;20.60;76.20
38684;DHT22;24910;53.248;-6.134;2023-07-20T08:39:38;20.50;75.90
38684;DHT22;24910;53.248;-6.134;2023-07-20T08:42:09;20.50;75.70
38684;DHT22;24910;53.248;-6.134;2023-07-20T08:44:39;20.40;75.30
38684;DHT22;24910;53.248;-6.134;2023-07-20T08:47:11;20.30;75.50
38684;DHT22;24910;53.248;-6.134;2023-07-20T08:49:41;20.40;75.80
38684;DHT22;24910;53.248;-6.134;2023-07-20T08:52:11;20.60;75.70
38684;DHT22;24910;53.248;-6.134;2023-07-20T08:54:41;20.80;75.30
38684;DHT22;24910;53.248;-6.134;2023-07-20T08:57:13;21.00;75.10
38684;DHT22;24910;53.248;-6.134;2023-07-20T08:59:43;21.00;75.00
38684;DHT22;24910;53.248;-6.134;2023-07-20T09:02:15;20.90;75.00
38684;DHT22;24910;53.248;-6.134;2023-07-20T09:04:46;20.90;75.30
38684;DHT22;24910;53.248;-6.134;2023-07-20T09:07:16;20.80;75.10
38684;DHT22;24910;53.248;-6.134;2023-07-20T09:09:45;20.80;75.20
38684;DHT22;24910;53.248;-6.134;2023-07-20T09:12:16;20.70;75.10
38684;DHT22;24910;53.248;-6.134;2023-07-20T09:14:45;20.80;75.40
38684;DHT22;24910;53.248;-6.134;2023-07-20T09:17:14;20.80;75.20
38684;DHT22;24910;53.248;-6.134;2023-07-20T09:19:48;20.90;75.30
38684;DHT22;24910;53.248;-6.134;2023-07-20T09:22:17;21.10;74.90
38684;DHT22;24910;53.248;-6.134;2023-07-20T09:24:46;21.10;74.60
38684;DHT22;24910;53.248;-6.134;2023-07-20T09:27:19;21.10;74.90
38684;DHT22;24910;53.248;-6.134;2023-07-20T09:29:49;21.00;74.90
38684;DHT22;24910;53.248;-6.134;2023-07-20T09:32:19;21.00;75.10
38684;DHT22;24910;53.248;-6.134;2023-07-20T09:34:52;21.00;75.30
38684;DHT22;24910;53.248;-6.134;2023-07-20T09:37:22;21.00;75.20
38684;DHT22;24910;53.248;-6.134;2023-07-20T09:39:52;21.00;75.30
38684;DHT22;24910;53.248;-6.134;2023-07-20T09:42:26;21.10;74.80
38684;DHT22;24910;53.248;-6.134;2023-07-20T09:44:58;21.00;74.60
38684;DHT22;24910;53.248;-6.134;2023-07-20T09:47:27;21.00;74.70
38684;DHT22;24910;53.248;-6.134;2023-07-20T09:49:58;20.90;74.80
38684;DHT22;24910;53.248;-6.134;2023-07-20T09:52:31;20.90;74.90
38684;DHT22;24910;53.248;-6.134;2023-07-20T09:55:03;20.90;74.50
38684;DHT22;24910;53.248;-6.134;2023-07-20T09:57:34;20.80;74.50
38684;DHT22;24910;53.248;-6.134;2023-07-20T10:00:04;20.90;74.70
38684;DHT22;24910;53.248;-6.134;2023-07-20T10:02:44;21.00;74.70
38684;DHT22;24910;53.248;-6.134;2023-07-20T10:05:15;21.00;74.60
38684;DHT22;24910;53.248;-6.134;2023-07-20T10:07:47;20.90;74.70
38684;DHT22;24910;53.248;-6.134;2023-07-20T10:10:16;20.80;75.00
38684;DHT22;24910;53.248;-6.134;2023-07-20T10:12:49;20.60;75.40
38684;DHT22;24910;53.248;-6.134;2023-07-20T10:15:24;20.40;75.60
38684;DHT22;24910;53.248;-6.134;2023-07-20T10:17:59;20.30;76.00
38684;DHT22;24910;53.248;-6.134;2023-07-20T10:20:32;20.20;76.10
38684;DHT22;24910;53.248;-6.134;2023-07-20T10:23:03;20.10;76.40
38684;DHT22;24910;53.248;-6.134;2023-07-20T10:25:33;19.90;76.80
38684;DHT22;24910;53.248;-6.134;2023-07-20T10:28:06;19.70;77.20
38684;DHT22;24910;53.248;-6.134;2023-07-20T10:30:36;19.50;77.50
38684;DHT22;24910;53.248;-6.134;2023-07-20T10:33:05;19.50;77.60
38684;DHT22;24910;53.248;-6.134;2023-07-20T10:35:51;19.50;77.60
38684;DHT22;24910;53.248;-6.134;2023-07-20T10:38:20;19.40;77.70
38684;DHT22;24910;53.248;-6.134;2023-07-20T10:41:16;19.40;77.80
38684;DHT22;24910;53.248;-6.134;2023-07-20T10:43:49;19.40;77.80
38684;DHT22;24910;53.248;-6.134;2023-07-20T10:46:34;19.30;77.90
38684;DHT22;24910;53.248;-6.134;2023-07-20T10:49:04;19.40;77.90
38684;DHT22;24910;53.248;-6.134;2023-07-20T10:51:39;19.60;77.60
38684;DHT22;24910;53.248;-6.134;2023-07-20T10:54:32;19.80;77.30
38684;DHT22;24910;53.248;-6.134;2023-07-20T10:57:29;19.80;77.00
38684;DHT22;24910;53.248;-6.134;2023-07-20T11:00:10;19.60;77.20
38684;DHT22;24910;53.248;-6.134;2023-07-20T11:02:46;19.50;77.30
38684;DHT22;24910;53.248;-6.134;2023-07-20T11:05:35;19.30;77.50
38684;DHT22;24910;53.248;-6.134;2023-07-20T11:08:07;19.20;77.70
38684;DHT22;24910;53.248;-6.134;2023-07-20T11:10:38;19.10;77.90
38684;DHT22;24910;53.248;-6.134;2023-07-20T11:13:21;19.00;78.20
38684;DHT22;24910;53.248;-6.134;2023-07-20T11:16:03;18.90;78.20
38684;DHT22;24910;53.248;-6.134;2023-07-20T11:18:35;19.00;78.20
38684;DHT22;24910;53.248;-6.134;2023-07-20T11:21:09;19.00;78.20
38684;DHT22;24910;53.248;-6.134;2023-07-20T11:23:39;19.00;78.10
38684;DHT22;24910;53.248;-6.134;2023-07-20T11:26:09;19.00;78.00
38684;DHT22;24910;53.248;-6.134;2023-07-20T11:28:40;19.00;78.00
38684;DHT22;24910;53.248;-6.134;2023-07-20T11:31:14;19.00;77.90
38684;DHT22;24910;53.248;-6.134;2023-07-20T11:33:44;18.90;78.00
38684;DHT22;24910;53.248;-6.134;2023-07-20T11:36:13;18.80;78.20
38684;DHT22;24910;53.248;-6.134;2023-07-20T11:38:55;18.70;78.40
38684;DHT22;24910;53.248;-6.134;2023-07-20T11:41:25;18.60;78.60
38684;DHT22;24910;53.248;-6.134;2023-07-20T11:43:54;18.60;78.80
38684;DHT22;24910;53.248;-6.134;2023-07-20T11:46:24;18.60;78.90
38684;DHT22;24910;53.248;-6.134;2023-07-20T11:48:57;18.60;78.90
38684;DHT22;24910;53.248;-6.134;2023-07-20T11:51:28;18.70;78.80
38684;DHT22;24910;53.248;-6.134;2023-07-20T11:53:59;18.70;78.70
38684;DHT22;24910;53.248;-6.134;2023-07-20T11:56:28;18.80;78.50
38684;DHT22;24910;53.248;-6.134;2023-07-20T11:58:59;18.80;78.40
38684;DHT22;24910;53.248;-6.134;2023-07-20T12:01:30;18.80;78.50
38684;DHT22;24910;53.248;-6.134;2023-07-20T12:04:01;18.80;78.60
38684;DHT22;24910;53.248;-6.134;2023-07-20T12:06:32;18.80;78.50
38684;DHT22;24910;53.248;-6.134;2023-07-20T12:09:02;18.90;78.60
38684;DHT22;24910;53.248;-6.134;2023-07-20T12:11:33;18.90;78.40
38684;DHT22;24910;53.248;-6.134;2023-07-20T12:14:03;18.90;78.40
38684;DHT22;24910;53.248;-6.134;2023-07-20T12:16:44;19.00;78.30
38684;DHT22;24910;53.248;-6.134;2023-07-20T12:19:24;19.00;78.30
38684;DHT22;24910;53.248;-6.134;2023-07-20T12:21:57;19.00;78.40
38684;DHT22;24910;53.248;-6.134;2023-07-20T12:24:28;18.90;78.50
38684;DHT22;24910;53.248;-6.134;2023-07-20T12:26:58;19.00;78.50
38684;DHT22;24910;53.248;-6.134;2023-07-20T12:29:27;19.10;78.60
38684;DHT22;24910;53.248;-6.134;2023-07-20T12:31:56;19.20;78.40
38684;DHT22;24910;53.248;-6.134;2023-07-20T12:34:25;19.30;78.30
38684;DHT22;24910;53.248;-6.134;2023-07-20T12:36:55;19.40;78.00
38684;DHT22;24910;53.248;-6.134;2023-07-20T12:39:24;19.50;77.90
38684;DHT22;24910;53.248;-6.134;2023-07-20T12:41:55;19.50;77.90
38684;DHT22;24910;53.248;-6.134;2023-07-20T12:44:25;19.50;78.00
38684;DHT22;24910;53.248;-6.134;2023-07-20T12:46:54;19.40;77.90
38684;DHT22;24910;53.248;-6.134;2023-07-20T12:49:24;19.30;78.10
38684;DHT22;24910;53.248;-6.134;2023-07-20T12:51:53;19.20;78.30
38684;DHT22;24910;53.248;-6.134;2023-07-20T12:54:22;19.10;78.50
38684;DHT22;24910;53.248;-6.134;2023-07-20T12:56:51;18.90;78.70
38684;DHT22;24910;53.248;-6.134;2023-07-20T12:59:24;18.90;79.00
38684;DHT22;24910;53.248;-6.134;2023-07-20T13:01:54;18.80;79.00
38684;DHT22;24910;53.248;-6.134;2023-07-20T13:04:23;18.60;79.10
38684;DHT22;24910;53.248;-6.134;2023-07-20T13:06:52;18.50;79.20
38684;DHT22;24910;53.248;-6.134;2023-07-20T13:09:22;18.50;79.30
38684;DHT22;24910;53.248;-6.134;2023-07-20T13:11:51;18.50;79.40
38684;DHT22;24910;53.248;-6.134;2023-07-20T13:14:21;18.50;79.40
38684;DHT22;24910;53.248;-6.134;2023-07-20T13:16:51;18.50;79.30
38684;DHT22;24910;53.248;-6.134;2023-07-20T13:19:20;18.50;79.40
38684;DHT22;24910;53.248;-6.134;2023-07-20T13:21:49;18.50;79.30
38684;DHT22;24910;53.248;-6.134;2023-07-20T13:24:19;18.60;79.20
38684;DHT22;24910;53.248;-6.134;2023-07-20T13:26:48;18.60;79.10
38684;DHT22;24910;53.248;-6.134;2023-07-20T13:29:17;18.70;79.00
38684;DHT22;24910;53.248;-6.134;2023-07-20T13:31:46;18.70;78.90
38684;DHT22;24910;53.248;-6.134;2023-07-20T13:34:19;18.80;78.80
38684;DHT22;24910;53.248;-6.134;2023-07-20T13:36:49;18.90;78.70
38684;DHT22;24910;53.248;-6.134;2023-07-20T13:39:18;19.10;78.60
38684;DHT22;24910;53.248;-6.134;2023-07-20T13:41:47;19.20;78.40
38684;DHT22;24910;53.248;-6.134;2023-07-20T13:44:16;19.20;78.30
38684;DHT22;24910;53.248;-6.134;2023-07-20T13:46:50;19.20;78.30
38684;DHT22;24910;53.248;-6.134;2023-07-20T13:49:23;19.20;78.40
38684;DHT22;24910;53.248;-6.134;2023-07-20T13:51:52;19.30;78.40
38684;DHT22;24910;53.248;-6.134;2023-07-20T13:54:24;19.30;78.30
38684;DHT22;24910;53.248;-6.134;2023-07-20T13:56:54;19.30;78.30
38684;DHT22;24910;53.248;-6.134;2023-07-20T13:59:24;19.30;78.30
38684;DHT22;24910;53.248;-6.134;2023-07-20T14:01:53;19.30;78.30
38684;DHT22;24910;53.248;-6.134;2023-07-20T14:04:44;19.30;78.40
38684;DHT22;24910;53.248;-6.134;2023-07-20T14:07:13;19.30;78.50
38684;DHT22;24910;53.248;-6.134;2023-07-20T14:09:45;19.30;78.80
38684;DHT22;24910;53.248;-6.134;2023-07-20T14:12:18;19.20;78.70
38684;DHT22;24910;53.248;-6.134;2023-07-20T14:14:47;19.20;78.90
38684;DHT22;24910;53.248;-6.134;2023-07-20T14:17:16;19.10;79.00
38684;DHT22;24910;53.248;-6.134;2023-07-20T14:19:47;19.00;78.90
38684;DHT22;24910;53.248;-6.134;2023-07-20T14:22:17;18.90;79.00
38684;DHT22;24910;53.248;-6.134;2023-07-20T14:24:46;18.90;79.20
38684;DHT22;24910;53.248;-6.134;2023-07-20T14:27:16;18.90;79.10
38684;DHT22;24910;53.248;-6.134;2023-07-20T14:29:45;18.90;79.10
38684;DHT22;24910;53.248;-6.134;2023-07-20T14:32:14;18.90;79.00
38684;DHT22;24910;53.248;-6.134;2023-07-20T14:34:43;18.90;78.90
38684;DHT22;24910;53.248;-6.134;2023-07-20T14:37:15;18.90;78.80
38684;DHT22;24910;53.248;-6.134;2023-07-20T14:39:44;18.90;78.60
38684;DHT22;24910;53.248;-6.134;2023-07-20T14:42:13;18.90;78.70
38684;DHT22;24910;53.248;-6.134;2023-07-20T14:44:42;18.90;78.70
38684;DHT22;24910;53.248;-6.134;2023-07-20T14:47:12;19.00;78.50
38684;DHT22;24910;53.248;-6.134;2023-07-20T14:49:42;18.90;78.10
38684;DHT22;24910;53.248;-6.134;2023-07-20T14:52:12;18.90;78.30
38684;DHT22;24910;53.248;-6.134;2023-07-20T14:54:44;18.80;78.10
38684;DHT22;24910;53.248;-6.134;2023-07-20T14:57:14;18.80;77.80
38684;DHT22;24910;53.248;-6.134;2023-07-20T14:59:43;18.70;77.80
38684;DHT22;24910;53.248;-6.134;2023-07-20T15:02:12;18.70;77.90
38684;DHT22;24910;53.248;-6.134;2023-07-20T15:04:46;18.70;77.90
38684;DHT22;24910;53.248;-6.134;2023-07-20T15:07:17;18.70;77.90
38684;DHT22;24910;53.248;-6.134;2023-07-20T15:09:49;18.70;78.00
38684;DHT22;24910;53.248;-6.134;2023-07-20T15:12:18;18.80;78.10
38684;DHT22;24910;53.248;-6.134;2023-07-20T15:15:02;18.80;77.90
38684;DHT22;24910;53.248;-6.134;2023-07-20T15:17:32;18.80;77.90
38684;DHT22;24910;53.248;-6.134;2023-07-20T15:20:03;18.90;77.80
38684;DHT22;24910;53.248;-6.134;2023-07-20T15:22:34;19.00;77.70
38684;DHT22;24910;53.248;-6.134;2023-07-20T15:25:06;19.10;77.60
38684;DHT22;24910;53.248;-6.134;2023-07-20T15:27:36;19.10;77.50
38684;DHT22;24910;53.248;-6.134;2023-07-20T15:30:07;19.10;77.40
38684;DHT22;24910;53.248;-6.134;2023-07-20T15:32:36;19.20;77.50
38684;DHT22;24910;53.248;-6.134;2023-07-20T15:35:08;19.20;77.40
38684;DHT22;24910;53.248;-6.134;2023-07-20T15:37:38;19.30;77.30
38684;DHT22;24910;53.248;-6.134;2023-07-20T15:40:10;19.40;77.20